Time;durP1;ratioP1;P1;durP2;ratioP2;P2;SDS_P1;SDS_P2;PMS_P1;PMS_P2;Temp;Humidity;BMP_temperature;BMP_pressure;BME280_temperature;BME280_humidity;BME280_pressure;Samples;Min_cycle;Max_cycle;Signal;HPM_P1;HPM_P2
2022/09/18 00:09:47;;;;;;;0.32;0.32;;;;;;;13.42;68.42;99514.84;18496988;32;20357;-56
2022/09/18 00:19:52;;;;;;;0.52;0.30;;;;;;;13.35;68.63;99516.78;18496447;32;20479;-56
2022/09/18 00:29:55;;;;;;;0.30;0.30;;;;;;;13.53;67.65;99525.94;18495972;32;20077;-57
2022/09/18 00:40:00;;;;;;;0.68;0.68;;;;;;;13.38;68.13;99532.44;18495894;32;20369;-57
2022/09/18 00:50:08;;;;;;;0.30;0.30;;;;;;;13.59;65.35;99535.41;18493912;32;20120;-57
2022/09/18 01:00:14;;;;;;;0.40;0.40;;;;;;;13.64;65.86;99536.09;18479816;32;20103;-57
2022/09/18 01:10:26;;;;;;;0.30;0.30;;;;;;;13.70;65.63;99542.94;18493814;32;20077;-57
2022/09/18 01:20:49;;;;;;;0.45;0.35;;;;;;;13.60;65.26;99568.59;18493519;32;20100;-56
2022/09/18 01:30:57;;;;;;;0.37;0.37;;;;;;;13.75;64.04;99577.78;18492643;32;20429;-57
2022/09/18 01:41:03;;;;;;;0.40;0.40;;;;;;;13.82;62.83;99581.06;18478894;32;20478;-57
2022/09/18 01:51:11;;;;;;;0.40;0.40;;;;;;;13.61;62.01;99583.41;18491437;32;20099;-57
2022/09/18 02:01:15;;;;;;;0.35;0.35;;;;;;;13.64;61.50;99601.66;18491260;32;20093;-57
2022/09/18 02:11:21;;;;;;;0.30;0.30;;;;;;;13.61;60.96;99601.75;18500009;32;20107;-57
2022/09/18 02:21:27;;;;;;;0.43;0.43;;;;;;;13.49;60.45;99612.59;18499792;32;20096;-57
2022/09/18 02:31:32;;;;;;;0.40;0.40;;;;;;;13.69;59.52;99622.53;18484596;32;20112;-56
2022/09/18 02:41:44;;;;;;;0.32;0.32;;;;;;;13.31;59.94;99612.16;18500542;32;20103;-56
2022/09/18 02:51:52;;;;;;;0.40;0.40;;;;;;;13.11;59.55;99633.63;18485863;32;20142;-57
2022/09/18 03:01:56;;;;;;;0.30;0.30;;;;;;;13.18;59.36;99662.28;18499925;32;20156;-56
2022/09/18 03:12:02;;;;;;;0.40;0.40;;;;;;;12.99;59.00;99655.72;18499681;32;20130;-57
2022/09/18 03:22:05;;;;;;;0.40;0.40;;;;;;;13.10;58.41;99671.19;18497830;32;20088;-57
2022/09/18 03:32:09;;;;;;;0.50;0.50;;;;;;;13.01;58.37;99670.53;18497953;32;20441;-57
2022/09/18 03:42:12;;;;;;;0.40;0.40;;;;;;;12.95;58.95;99691.66;18497723;32;20101;-56
2022/09/18 03:52:17;;;;;;;0.40;0.40;;;;;;;12.59;59.03;99691.56;18497211;32;20138;-56
2022/09/18 04:02:20;;;;;;;0.30;0.30;;;;;;;12.43;59.34;99686.66;18496878;32;20248;-57
2022/09/18 04:12:25;;;;;;;0.50;0.50;;;;;;;12.54;58.78;99694.28;18496222;32;20119;-56
2022/09/18 04:22:28;;;;;;;0.40;0.40;;;;;;;12.56;58.58;99717.81;18497431;32;20092;-56
2022/09/18 04:32:32;;;;;;;0.40;0.40;;;;;;;12.79;57.42;99743.50;18495698;32;20112;-57
2022/09/18 04:42:36;;;;;;;3.60;0.80;;;;;;;12.73;57.70;99764.59;18495764;32;20104;-57
2022/09/18 04:52:41;;;;;;;0.37;0.37;;;;;;;12.77;57.62;99764.50;18494973;32;20471;-57
2022/09/18 05:02:44;;;;;;;0.47;0.47;;;;;;;12.90;57.12;99790.41;18494412;32;20096;-57
2022/09/18 05:12:48;;;;;;;0.47;0.47;;;;;;;12.96;56.32;99797.28;18493938;32;20105;-57
2022/09/18 05:22:51;;;;;;;0.40;0.40;;;;;;;13.29;55.57;99810.53;18493653;32;20088;-57
2022/09/18 05:32:58;;;;;;;0.40;0.40;;;;;;;13.71;54.00;99812.22;18493750;32;20115;-57
2022/09/18 05:43:01;;;;;;;0.30;0.30;;;;;;;14.28;52.16;99807.25;18498807;32;20111;-57
2022/09/18 05:53:07;;;;;;;0.30;0.30;;;;;;;16.01;47.06;99826.63;18500204;32;20117;-57
2022/09/18 06:03:12;;;;;;;0.62;0.37;;;;;;;17.26;43.52;99807.22;18500258;32;20151;-57
2022/09/18 06:13:18;;;;;;;0.20;0.20;;;;;;;18.78;40.13;99796.41;18500020;32;20097;-57
2022/09/18 06:23:22;;;;;;;0.20;0.20;;;;;;;18.80;39.67;99797.22;18500101;32;20115;-57
2022/09/18 06:33:28;;;;;;;0.20;0.20;;;;;;;18.24;40.21;99818.19;18500539;32;20444;-57
2022/09/18 06:43:31;;;;;;;0.22;0.22;;;;;;;17.56;41.88;99824.50;18486443;32;20465;-57
2022/09/18 06:53:35;;;;;;;0.20;0.20;;;;;;;17.54;41.85;99818.41;18499268;32;20377;-57
2022/09/18 07:03:38;;;;;;;0.30;0.30;;;;;;;18.21;41.31;99842.09;18498199;31;20362;-57
2022/09/18 07:13:44;;;;;;;0.30;0.30;;;;;;;17.08;43.95;99836.94;18484107;32;20490;-57
2022/09/18 07:23:47;;;;;;;0.30;0.30;;;;;;;16.55;45.89;99854.63;18484859;32;20376;-56
2022/09/18 07:33:52;;;;;;;0.30;0.30;;;;;;;15.88;47.30;99873.53;18498643;32;20111;-57
2022/09/18 07:43:55;;;;;;;0.30;0.30;;;;;;;16.47;47.46;99891.81;18497680;32;20400;-57
2022/09/18 07:54:00;;;;;;;0.40;0.40;;;;;;;16.49;45.97;99890.81;18496692;32;20119;-57
2022/09/18 08:04:05;;;;;;;0.30;0.30;;;;;;;16.24;45.67;99903.97;18495632;32;20092;-57
2022/09/18 08:14:10;;;;;;;0.30;0.30;;;;;;;16.45;45.57;99910.28;18497764;32;20092;-57
2022/09/18 08:24:13;;;;;;;0.30;0.30;;;;;;;16.14;45.82;99908.69;18481932;32;20120;-56
2022/09/18 08:34:17;;;;;;;0.52;0.52;;;;;;;15.69;46.13;99915.34;18496001;32;20096;-57
2022/09/18 08:44:23;;;;;;;0.55;0.52;;;;;;;15.47;47.28;99910.75;18495572;32;20102;-57
2022/09/18 08:54:39;;;;;;;0.40;0.40;;;;;;;15.74;47.66;99923.09;18494899;32;20137;-57
2022/09/18 09:04:42;;;;;;;0.30;0.30;;;;;;;15.61;46.67;99927.91;18495530;32;20357;-57
2022/09/18 09:15:02;;;;;;;0.30;0.30;;;;;;;15.58;45.95;99943.75;18496666;32;20195;-56
2022/09/18 09:25:11;;;;;;;0.40;0.40;;;;;;;16.06;44.09;99926.50;18501351;32;20408;-57
2022/09/18 09:35:22;;;;;;;0.30;0.30;;;;;;;16.32;44.56;99930.06;18501254;32;20089;-57
2022/09/18 09:45:28;;;;;;;0.50;0.50;;;;;;;16.26;43.89;99930.25;18501099;32;20096;-57
2022/09/18 09:55:37;;;;;;;0.40;0.40;;;;;;;16.01;44.08;99963.53;18501752;32;20219;-57
2022/09/18 10:05:43;;;;;;;0.85;0.62;;;;;;;15.95;46.01;99969.84;18500701;32;20456;-57
2022/09/18 10:15:49;;;;;;;0.32;0.32;;;;;;;16.03;45.03;99968.72;18500361;32;20096;-57
2022/09/18 10:25:55;;;;;;;0.35;0.35;;;;;;;16.03;46.32;99972.22;18499276;32;20096;-57
2022/09/18 10:36:04;;;;;;;0.40;0.40;;;;;;;16.47;44.36;99976.09;18500838;32;20115;-57
2022/09/18 10:46:07;;;;;;;0.20;0.20;;;;;;;16.25;45.81;99981.22;18499476;32;20150;-57
2022/09/18 10:56:18;;;;;;;0.57;0.57;;;;;;;16.57;44.67;99992.44;18498767;32;20153;-56
2022/09/18 11:06:24;;;;;;;0.68;0.68;;;;;;;16.18;44.80;99997.19;18498806;32;20131;-57
2022/09/18 11:16:30;;;;;;;0.35;0.35;;;;;;;16.63;45.14;100006.28;18498669;32;20361;-57
2022/09/18 11:26:34;;;;;;;0.28;0.28;;;;;;;16.75;44.36;100006.78;18498181;32;20393;-57
2022/09/18 11:36:39;;;;;;;0.45;0.45;;;;;;;17.10;43.32;99995.94;18498154;32;20491;-57
2022/09/18 11:46:46;;;;;;;0.20;0.20;;;;;;;17.41;41.78;99984.25;18497229;32;20104;-57
2022/09/18 11:56:54;;;;;;;0.32;0.32;;;;;;;17.58;43.08;99979.22;18497250;32;20146;-57
2022/09/18 12:07:03;;;;;;;0.50;0.50;;;;;;;18.33;42.12;99955.19;18483601;32;20097;-57
2022/09/18 12:17:15;;;;;;;0.30;0.30;;;;;;;18.74;39.76;99956.13;18496669;32;20088;-57
2022/09/18 12:27:27;;;;;;;0.20;0.20;;;;;;;18.85;39.18;99948.56;18496553;32;20132;-57
2022/09/18 12:37:45;;;;;;;0.20;0.20;;;;;;;19.20;39.44;99938.22;18482353;32;20105;-57
2022/09/18 12:48:04;;;;;;;0.20;0.20;;;;;;;19.36;37.58;99934.91;18495708;32;20107;-57
2022/09/18 12:58:19;;;;;;;0.20;0.20;;;;;;;19.27;35.82;99921.16;18495280;32;20108;-57
2022/09/18 13:08:27;;;;;;;0.20;0.20;;;;;;;20.19;34.47;99919.47;18479904;32;20136;-57
2022/09/18 13:18:37;;;;;;;1.10;0.30;;;;;;;20.38;33.15;99908.78;18493948;32;20084;-57
2022/09/18 13:28:41;;;;;;;0.10;0.10;;;;;;;20.96;30.21;99897.00;18492716;32;20157;-57
2022/09/18 13:38:49;;;;;;;0.10;0.10;;;;;;;21.15;31.48;99907.50;18492288;32;20462;-57
2022/09/18 13:48:55;;;;;;;0.10;0.10;;;;;;;21.35;32.26;99938.28;18493293;32;20084;-57
2022/09/18 13:58:59;;;;;;;0.15;0.15;;;;;;;20.60;32.34;99936.84;18453876;32;20092;-58
2022/09/18 14:09:04;;;;;;;0.17;0.17;;;;;;;18.96;38.46;100003.66;18498444;32;20370;-57
2022/09/18 14:19:30;;;;;;;0.20;0.20;;;;;;;17.99;48.57;99985.56;18499048;32;20133;-57
2022/09/18 14:29:34;;;;;;;0.10;0.10;;;;;;;18.09;46.40;99991.38;18498300;32;20182;-57
2022/09/18 14:39:38;;;;;;;0.20;0.20;;;;;;;18.77;43.41;99985.94;18500232;32;20097;-57
2022/09/18 14:49:43;;;;;;;0.20;0.20;;;;;;;18.94;40.90;99993.13;18499363;32;20437;-57
2022/09/18 14:59:49;;;;;;;0.25;0.25;;;;;;;18.83;41.47;99987.44;18494078;32;20085;-58
2022/09/18 15:09:53;;;;;;;0.30;0.30;;;;;;;18.65;40.69;99983.81;18495796;32;20119;-57
2022/09/18 15:20:02;;;;;;;0.28;0.28;;;;;;;18.58;40.06;99999.06;18497148;32;20146;-57
2022/09/18 15:30:08;;;;;;;0.30;0.30;;;;;;;18.38;39.67;99989.34;18497328;32;20089;-57
2022/09/18 15:40:18;;;;;;;0.20;0.20;;;;;;;18.43;39.93;100001.44;18483381;32;20231;-57
2022/09/18 15:50:35;;;;;;;0.20;0.20;;;;;;;18.07;39.34;100002.00;18497475;32;20224;-57
2022/09/18 16:00:39;;;;;;;0.20;0.20;;;;;;;17.91;41.13;100007.00;18496615;32;20085;-57
2022/09/18 16:10:49;;;;;;;0.30;0.30;;;;;;;17.36;41.94;100028.41;18496753;32;20119;-57
2022/09/18 16:21:03;;;;;;;0.30;0.30;;;;;;;17.16;43.43;100045.81;18455521;32;20471;-57
2022/09/18 16:31:06;;;;;;;0.32;0.32;;;;;;;16.53;49.67;100035.62;18431433;32;20107;-57
2022/09/18 16:41:11;;;;;;;0.30;0.30;;;;;;;16.38;50.06;100048.38;18431312;32;20108;-57
2022/09/18 16:51:14;;;;;;;0.40;0.40;;;;;;;16.21;49.39;100065.56;18455877;32;20092;-57
2022/09/18 17:01:21;;;;;;;0.30;0.30;;;;;;;16.07;48.35;100065.13;18495358;32;20466;-57
2022/09/18 17:11:25;;;;;;;0.50;0.50;;;;;;;15.75;49.00;100080.94;18494792;32;20106;-57
2022/09/18 17:21:29;;;;;;;0.30;0.30;;;;;;;15.79;49.20;100071.19;18493608;32;20154;-57
2022/09/18 17:31:33;;;;;;;0.30;0.30;;;;;;;15.51;50.05;100066.72;18479063;32;20080;-57
2022/09/18 17:41:38;;;;;;;0.30;0.30;;;;;;;15.39;50.57;100066.16;18484089;32;20397;-58
2022/09/18 17:51:41;;;;;;;0.30;0.30;;;;;;;15.19;50.99;100074.59;18500822;32;20396;-58
2022/09/18 18:01:47;;;;;;;0.30;0.30;;;;;;;15.25;52.18;100089.34;18498205;32;20397;-57
2022/09/18 18:11:50;;;;;;;0.30;0.30;;;;;;;15.25;52.47;100110.38;18500432;32;20088;-57
2022/09/18 18:21:55;;;;;;;0.30;0.30;;;;;;;15.45;51.52;100101.94;18501241;32;20111;-57
2022/09/18 18:31:59;;;;;;;0.30;0.30;;;;;;;15.73;51.27;100118.72;18455963;32;20093;-57
2022/09/18 18:42:04;;;;;;;0.30;0.30;;;;;;;15.65;51.64;100129.47;18435832;32;20101;-57
2022/09/18 18:52:07;;;;;;;0.30;0.30;;;;;;;15.67;51.00;100128.53;18443671;32;20093;-57
2022/09/18 19:02:11;;;;;;;0.65;0.65;;;;;;;15.68;51.49;100143.41;18419596;32;20102;-57
2022/09/18 19:12:16;;;;;;;0.40;0.40;;;;;;;15.77;50.76;100133.53;18419833;32;20449;-57
2022/09/18 19:22:20;;;;;;;0.32;0.32;;;;;;;15.59;50.64;100135.78;18419039;32;20093;-57
2022/09/18 19:32:23;;;;;;;0.30;0.30;;;;;;;15.71;50.28;100133.72;18419053;32;20097;-58
2022/09/18 19:42:30;;;;;;;0.52;0.52;;;;;;;15.81;50.70;100140.44;18467682;32;20357;-57
2022/09/18 19:52:34;;;;;;;0.30;0.30;;;;;;;15.75;51.16;100141.47;18497422;32;20106;-57
2022/09/18 20:02:38;;;;;;;0.32;0.32;;;;;;;15.65;51.44;100143.50;18481951;32;20092;-57
2022/09/18 20:12:42;;;;;;;0.30;0.30;;;;;;;15.56;51.72;100142.88;18496335;32;20096;-58
2022/09/18 20:22:47;;;;;;;0.30;0.30;;;;;;;15.52;52.17;100134.22;18496360;32;20112;-57
2022/09/18 20:32:50;;;;;;;0.40;0.40;;;;;;;15.54;52.87;100127.12;18495440;32;20140;-57
2022/09/18 20:42:55;;;;;;;0.40;0.40;;;;;;;15.53;52.18;100122.78;18495632;32;20457;-57
2022/09/18 20:53:04;;;;;;;0.30;0.30;;;;;;;15.54;52.17;100124.50;18480729;32;20088;-57
2022/09/18 21:03:12;;;;;;;0.35;0.35;;;;;;;15.72;52.03;100124.91;18494312;32;20405;-57
2022/09/18 21:13:15;;;;;;;0.30;0.30;;;;;;;15.70;52.60;100118.81;18493395;32;20114;-57
2022/09/18 21:33:41;;;;;;;;;;;;;;;15.65;53.32;100111.94;18430179;32;20085;-57
2022/09/18 21:43:49;;;;;;;0.30;0.30;;;;;;;15.76;53.83;100102.88;18428976;32;20016;-58
2022/09/18 21:53:52;;;;;;;0.35;0.35;;;;;;;15.62;54.10;100104.09;18491822;32;20133;-57
2022/09/18 22:03:58;;;;;;;0.30;0.30;;;;;;;15.76;54.81;100100.25;18491066;32;20096;-57
2022/09/18 22:14:01;;;;;;;0.30;0.30;;;;;;;15.66;54.28;100074.19;18490108;32;20085;-57
2022/09/18 22:24:07;;;;;;;0.40;0.40;;;;;;;15.35;55.41;100080.28;18467097;32;20731;-57
2022/09/18 22:34:11;;;;;;;0.30;0.30;;;;;;;15.28;55.01;100080.50;18455283;32;20103;-57
2022/09/18 22:44:15;;;;;;;0.35;0.35;;;;;;;15.19;56.67;100079.00;18430941;32;20111;-57
2022/09/18 22:54:22;;;;;;;0.40;0.40;;;;;;;15.44;52.38;100076.56;18500165;32;20101;-57
2022/09/18 23:04:29;;;;;;;0.35;0.35;;;;;;;15.58;51.28;100044.59;18456879;32;20109;-57
2022/09/18 23:14:32;;;;;;;0.30;0.30;;;;;;;15.73;50.92;100035.41;18434005;32;20638;-57
2022/09/18 23:24:37;;;;;;;0.52;0.50;;;;;;;15.91;50.35;100046.31;18434019;32;20132;-57
2022/09/18 23:34:40;;;;;;;0.52;0.52;;;;;;;15.79;50.46;100053.66;18433448;32;20158;-57
2022/09/18 23:44:44;;;;;;;0.30;0.30;;;;;;;15.81;49.69;100035.16;18428238;32;152886;-57
2022/09/18 23:54:47;;;;;;;0.30;0.30;;;;;;;15.83;49.50;100022.81;18433040;32;20105;-57
